Time;durP1;ratioP1;P1;durP2;ratioP2;P2;SDS_P1;SDS_P2;PMS_P1;PMS_P2;Temp;Humidity;BMP_temperature;BMP_pressure;BME280_temperature;BME280_humidity;BME280_pressure;Samples;Min_cycle;Max_cycle;Signal;HPM_P1;HPM_P2
2021/09/18 00:01:58;;;;;;;2.75;2.38;;;;;;;21.61;56.81;101753.94;4712554;30;20049;-83
2021/09/18 00:04:31;;;;;;;3.60;2.60;;;;;;;21.61;56.91;101752.19;4762474;30;20051;-82
2021/09/18 00:07:12;;;;;;;2.80;2.40;;;;;;;21.61;56.65;101752.19;4769194;30;20492;-82
2021/09/18 00:09:39;;;;;;;3.30;2.58;;;;;;;21.60;56.93;101757.44;4783608;30;20115;-82
2021/09/18 00:15:49;;;;;;;4.45;2.40;;;;;;;21.60;56.68;101753.06;4782841;30;20043;-82
2021/09/18 00:21:29;;;;;;;3.50;2.70;;;;;;;21.59;56.66;101751.31;4713633;30;20076;-82
2021/09/18 00:27:18;;;;;;;3.33;2.63;;;;;;;21.59;56.83;101760.94;4785953;30;20583;-82
2021/09/18 00:33:06;;;;;;;3.17;2.40;;;;;;;21.59;56.74;101751.31;4766756;30;20051;-82
2021/09/18 00:35:32;;;;;;;3.83;2.65;;;;;;;21.59;56.92;101748.72;4751231;30;20044;-82
2021/09/18 00:41:43;;;;;;;3.90;2.78;;;;;;;21.57;56.82;101745.25;4776383;30;20064;-82
2021/09/18 00:47:51;;;;;;;2.92;2.42;;;;;;;21.57;56.72;101755.72;4732569;30;20112;-82
2021/09/18 00:50:22;;;;;;;3.08;2.45;;;;;;;21.57;56.75;101751.34;4732908;30;20041;-82
2021/09/18 00:52:59;;;;;;;3.13;2.20;;;;;;;21.57;56.68;101759.19;4731563;30;20049;-81
2021/09/18 00:55:30;;;;;;;2.90;2.38;;;;;;;21.56;56.68;101748.75;4733232;30;20029;-82
2021/09/18 00:57:57;;;;;;;3.45;2.75;;;;;;;21.56;56.87;101759.22;4734806;30;20052;-81
2021/09/18 01:00:43;;;;;;;3.08;2.50;;;;;;;21.56;56.74;101754.84;4718081;30;20036;-82
2021/09/18 01:06:59;;;;;;;2.70;2.30;;;;;;;21.57;56.83;101767.06;4733318;30;20040;-82
2021/09/18 01:09:35;;;;;;;2.95;2.25;;;;;;;21.55;56.92;101760.97;4719117;30;20041;-82
2021/09/18 01:15:43;;;;;;;3.17;2.10;;;;;;;21.54;56.75;101753.16;4737755;30;20067;-83
2021/09/18 01:18:10;;;;;;;4.03;2.33;;;;;;;21.53;56.89;101749.63;4733862;30;20129;-82
2021/09/18 01:20:49;;;;;;;2.83;2.40;;;;;;;21.54;56.76;101753.16;4749760;30;20041;-82
2021/09/18 01:23:20;;;;;;;2.75;2.35;;;;;;;21.52;56.68;101750.53;4718078;30;20552;-82
2021/09/18 01:26:14;;;;;;;2.17;1.85;;;;;;;21.53;56.79;101747.00;4715530;30;20045;-81
2021/09/18 01:32:30;;;;;;;2.78;2.15;;;;;;;21.51;56.56;101740.97;4785436;30;20038;-82
2021/09/18 01:35:45;;;;;;;3.80;2.42;;;;;;;21.51;56.81;101747.91;4785691;30;20036;-81
2021/09/18 01:38:37;;;;;;;3.10;2.30;;;;;;;21.52;56.62;101752.28;4730142;30;20041;-82
2021/09/18 01:41:14;;;;;;;2.47;2.08;;;;;;;21.50;56.66;101754.91;4713368;30;20092;-83
2021/09/18 01:43:43;;;;;;;2.58;2.13;;;;;;;21.51;56.83;101754.06;4696514;30;20069;-82
2021/09/18 01:49:32;;;;;;;2.95;2.35;;;;;;;21.52;56.57;101749.66;4704017;30;20578;-82
2021/09/18 01:52:29;;;;;;;2.65;2.00;;;;;;;21.51;56.70;101751.44;4679284;30;20085;-82
2021/09/18 02:04:57;;;;;;;3.78;2.40;;;;;;;21.48;56.43;101748.84;4679186;30;20044;-82
2021/09/18 02:07:24;;;;;;;3.25;2.00;;;;;;;;;;4678086;30;20046;-82
2021/09/18 02:09:51;;;;;;;3.40;2.28;;;;;;;21.48;56.49;101748.84;4663777;30;20562;-82
2021/09/18 02:12:37;;;;;;;2.60;2.17;;;;;;;21.48;56.64;101748.84;4675904;30;20201;-82
2021/09/18 02:21:37;;;;;;;2.63;2.20;;;;;;;21.48;56.68;101735.75;4710448;30;20138;-82
2021/09/18 02:37:02;;;;;;;2.72;2.15;;;;;;;21.50;56.73;101738.34;4727044;30;20070;-82
2021/09/18 02:39:46;;;;;;;3.03;1.90;;;;;;;21.47;56.53;101728.78;4764319;30;20059;-82
2021/09/18 02:42:19;;;;;;;3.25;2.10;;;;;;;21.46;56.52;101729.66;4748543;30;20056;-81
2021/09/18 02:48:26;;;;;;;3.13;2.08;;;;;;;21.47;56.42;101722.66;4763367;30;20063;-81
2021/09/18 02:50:54;;;;;;;2.75;2.20;;;;;;;21.47;56.54;101730.50;4750683;30;20056;-81
2021/09/18 02:53:22;;;;;;;2.90;2.30;;;;;;;21.46;56.59;101729.66;4749432;30;20046;-82
2021/09/18 02:55:49;;;;;;;3.03;2.17;;;;;;;21.46;56.71;101724.41;4766838;30;20056;-81
2021/09/18 02:58:14;;;;;;;2.95;2.20;;;;;;;21.47;56.61;101722.66;4765149;30;20457;-81
2021/09/18 03:00:42;;;;;;;2.33;2.03;;;;;;;21.46;56.36;101720.94;4752996;30;20032;-81
2021/09/18 03:03:08;;;;;;;2.40;2.17;;;;;;;21.45;56.48;101720.06;4767223;30;20028;-81
2021/09/18 03:05:35;;;;;;;4.63;2.00;;;;;;;21.45;56.63;101711.31;4748176;30;20032;-81
2021/09/18 03:08:03;;;;;;;2.55;1.90;;;;;;;21.45;56.48;101716.56;4782017;30;20487;-81
2021/09/18 03:10:30;;;;;;;2.83;2.20;;;;;;;21.45;56.81;101722.69;4765696;30;20071;-82
2021/09/18 03:13:06;;;;;;;2.08;1.80;;;;;;;21.46;56.67;101715.69;4768319;30;20039;-81
2021/09/18 03:15:38;;;;;;;2.50;2.05;;;;;;;21.45;56.56;101708.72;4784384;30;20028;-82
2021/09/18 03:18:05;;;;;;;2.42;2.05;;;;;;;21.46;56.78;101707.84;4781545;30;20385;-81
2021/09/18 03:20:51;;;;;;;2.50;2.00;;;;;;;21.44;56.47;101709.59;4784525;30;20023;-82
2021/09/18 03:29:50;;;;;;;2.92;2.08;;;;;;;21.44;56.52;101715.69;4776589;30;20069;-83
2021/09/18 03:32:17;;;;;;;3.70;2.05;;;;;;;21.43;56.79;101715.75;4761651;30;20020;-82
2021/09/18 03:38:20;;;;;;;2.50;1.98;;;;;;;21.43;56.65;101711.38;4785034;30;20056;-82
2021/09/18 03:40:46;;;;;;;2.67;2.00;;;;;;;21.43;56.49;101714.00;4768636;30;20035;-82
2021/09/18 03:43:12;;;;;;;2.42;1.95;;;;;;;21.41;56.54;101710.50;4766437;30;20052;-81
2021/09/18 03:45:52;;;;;;;1.85;1.58;;;;;;;21.43;56.39;101718.38;4767222;30;20053;-81
2021/09/18 03:48:17;;;;;;;2.47;1.83;;;;;;;21.43;56.60;101714.00;4754523;30;20051;-81
2021/09/18 03:51:04;;;;;;;2.47;1.90;;;;;;;21.43;56.62;101711.38;4782932;30;20024;-81
2021/09/18 03:53:31;;;;;;;2.78;1.90;;;;;;;21.41;56.35;101713.13;4753045;30;20105;-81
2021/09/18 03:59:21;;;;;;;2.42;1.85;;;;;;;21.42;56.54;101714.00;4775160;30;20507;-81
2021/09/18 04:01:48;;;;;;;2.17;1.80;;;;;;;21.42;56.39;101711.38;4766908;30;20055;-81
2021/09/18 04:07:38;;;;;;;2.15;1.90;;;;;;;21.40;56.56;101718.34;4783279;30;20051;-81
2021/09/18 04:10:25;;;;;;;2.72;1.95;;;;;;;21.40;56.50;101719.22;4782944;30;20039;-81
2021/09/18 04:12:51;;;;;;;2.10;1.55;;;;;;;21.40;56.63;101721.81;4729836;30;20129;-81
2021/09/18 04:15:20;;;;;;;2.30;1.85;;;;;;;21.39;56.44;101729.72;4744876;30;20055;-81
2021/09/18 04:17:53;;;;;;;2.58;1.80;;;;;;;21.41;56.51;101722.72;4731045;30;20497;-81
2021/09/18 04:20:22;;;;;;;;;;;;;;;21.39;56.35;101727.97;4728370;30;20141;-81
2021/09/18 04:22:48;;;;;;;2.58;2.00;;;;;;;21.39;56.83;101727.97;4738737;30;19914;-82
2021/09/18 04:25:34;;;;;;;2.33;1.70;;;;;;;21.39;56.38;101727.09;4743405;30;20045;-81
2021/09/18 04:27:59;;;;;;;2.70;1.90;;;;;;;21.38;56.25;101734.06;4728560;30;20065;-81
2021/09/18 04:30:44;;;;;;;2.35;1.85;;;;;;;21.38;56.38;101728.84;4744025;30;20063;-81
2021/09/18 04:33:10;;;;;;;2.92;1.88;;;;;;;21.39;56.51;101725.34;4744463;30;20028;-81
2021/09/18 04:36:13;;;;;;;1.85;1.50;;;;;;;21.40;56.40;101728.81;4729462;30;20071;-81
2021/09/18 04:38:40;;;;;;;2.33;1.80;;;;;;;21.40;56.63;101734.91;4736548;30;20103;-81
2021/09/18 04:41:18;;;;;;;1.90;1.58;;;;;;;21.38;56.44;101731.44;4744519;30;20045;-81
2021/09/18 04:43:51;;;;;;;3.55;1.73;;;;;;;21.39;56.47;101732.34;4717155;30;20529;-81
2021/09/18 04:46:17;;;;;;;;;;;;;;;21.38;56.60;101736.69;4740108;30;20059;-81
2021/09/18 04:48:55;;;;;;;2.00;1.80;;;;;;;21.38;56.51;101736.69;4729695;30;20017;-81
2021/09/18 04:51:41;;;;;;;2.20;1.80;;;;;;;21.37;56.28;101743.69;4744310;30;20049;-81
2021/09/18 04:54:10;;;;;;;2.15;1.80;;;;;;;21.37;56.58;101737.59;4744624;30;20037;-81
2021/09/18 04:56:45;;;;;;;2.72;1.80;;;;;;;21.37;56.49;101746.31;4729394;30;20059;-81
2021/09/18 04:59:11;;;;;;;1.88;1.65;;;;;;;21.37;56.38;101746.31;4745066;30;20033;-81
2021/09/18 05:01:37;;;;;;;2.03;1.60;;;;;;;21.37;56.35;101742.81;4741317;30;20198;-81
2021/09/18 05:04:10;;;;;;;1.92;1.60;;;;;;;21.37;56.46;101746.31;4778610;30;20047;-81
2021/09/18 05:06:36;;;;;;;;;;;;;;;21.38;56.33;101747.16;4769127;30;20048;-81
2021/09/18 05:09:05;;;;;;;2.08;1.88;;;;;;;21.38;56.42;101752.41;4769630;30;19921;-82
2021/09/18 05:11:33;;;;;;;1.98;1.52;;;;;;;21.39;56.49;101753.28;4769907;30;20382;-81
2021/09/18 05:14:22;;;;;;;2.13;1.73;;;;;;;21.39;56.33;101753.28;4783457;30;20035;-81
2021/09/18 05:16:48;;;;;;;2.40;1.90;;;;;;;21.39;56.12;101758.53;4748909;30;20044;-81
2021/09/18 05:19:27;;;;;;;2.30;1.58;;;;;;;21.39;56.28;101755.91;4722107;30;20051;-81
2021/09/18 05:21:53;;;;;;;1.60;1.35;;;;;;;21.39;55.97;101758.53;4750714;30;20049;-82
2021/09/18 05:28:02;;;;;;;2.25;1.67;;;;;;;21.42;56.11;101754.13;4748596;30;20098;-80
2021/09/18 05:30:31;;;;;;;2.30;1.70;;;;;;;21.44;56.17;101759.34;4731940;30;20082;-81
2021/09/18 05:32:58;;;;;;;2.42;1.80;;;;;;;21.43;56.04;101750.66;4734417;30;20059;-82
2021/09/18 05:35:43;;;;;;;2.13;1.70;;;;;;;21.45;56.26;101761.97;4748990;30;20036;-81
2021/09/18 05:41:38;;;;;;;2.53;1.50;;;;;;;21.46;56.22;101758.44;4747317;30;20081;-82
2021/09/18 05:44:07;;;;;;;3.25;1.60;;;;;;;21.46;56.45;101760.22;4746939;30;20051;-81
2021/09/18 05:46:52;;;;;;;2.13;1.70;;;;;;;21.46;56.15;101768.94;4748973;30;20103;-81
2021/09/18 05:49:51;;;;;;;2.00;1.63;;;;;;;21.48;56.02;101761.06;4786819;30;20028;-82
2021/09/18 05:52:17;;;;;;;2.58;1.60;;;;;;;21.48;56.04;101759.31;4769620;30;20501;-82
2021/09/18 05:58:18;;;;;;;2.28;1.52;;;;;;;21.57;55.82;101764.44;4785728;30;20054;-80
2021/09/18 06:00:45;;;;;;;1.58;1.30;;;;;;;21.60;55.68;101763.56;4767590;30;20029;-81
2021/09/18 06:06:57;;;;;;;2.03;1.50;;;;;;;21.65;55.48;101776.59;4785912;30;20038;-80
2021/09/18 06:09:30;;;;;;;1.90;1.42;;;;;;;21.65;55.75;101773.97;4783546;30;20035;-79
2021/09/18 06:15:21;;;;;;;1.83;1.45;;;;;;;21.68;55.47;101780.03;4783948;30;20070;-82
2021/09/18 06:18:09;;;;;;;4.55;1.60;;;;;;;21.70;55.44;101793.13;4781210;30;20415;-81
2021/09/18 07:35:41;;;;;;;1.70;1.40;;;;;;;23.18;51.33;101808.47;5179262;24;19930;-81
2021/09/18 07:48:15;;;;;;;10.95;4.15;;;;;;;22.67;52.54;101818.94;4730304;30;20148;-79
2021/09/18 07:50:41;;;;;;;6.75;3.08;;;;;;;22.66;52.70;101825.06;4726250;30;20101;-79
2021/09/18 07:53:11;;;;;;;7.88;2.50;;;;;;;22.80;52.54;101825.72;4720031;30;20073;-78
2021/09/18 07:55:52;;;;;;;7.60;2.88;;;;;;;22.83;52.60;101819.56;4712527;30;20041;-78
2021/09/18 07:58:18;;;;;;;8.23;4.45;;;;;;;22.53;52.67;101832.25;4737298;30;20053;-78
2021/09/18 08:00:45;;;;;;;6.20;3.30;;;;;;;22.42;53.33;101833.28;4727901;30;20106;-79
2021/09/18 08:03:10;;;;;;;6.82;4.72;;;;;;;22.21;53.19;101835.31;4741903;30;20048;-79
2021/09/18 08:05:47;;;;;;;7.72;5.00;;;;;;;22.04;53.89;101839.88;4721597;30;20056;-80
2021/09/18 08:08:12;;;;;;;9.02;4.55;;;;;;;22.00;54.32;101844.28;4745385;30;20032;-78
2021/09/18 08:10:43;;;;;;;9.15;4.25;;;;;;;21.93;54.31;101838.25;4715983;30;20072;-77
2021/09/18 08:13:09;;;;;;;10.57;5.38;;;;;;;21.88;54.43;101833.94;4742916;30;20052;-79
2021/09/18 08:15:35;;;;;;;8.20;3.97;;;;;;;21.89;54.75;101843.56;4739364;30;20044;-79
2021/09/18 08:18:01;;;;;;;6.68;4.80;;;;;;;21.98;54.29;101839.06;4731699;30;20040;-79
2021/09/18 08:20:27;;;;;;;8.10;5.35;;;;;;;22.07;53.81;101838.06;4748620;30;20058;-80
2021/09/18 08:22:52;;;;;;;9.63;5.45;;;;;;;22.01;54.08;101835.53;4760873;30;20039;-79
2021/09/18 08:25:18;;;;;;;8.93;4.95;;;;;;;22.04;54.09;101834.66;4734474;30;20047;-79
2021/09/18 08:27:44;;;;;;;9.38;5.75;;;;;;;22.07;53.81;101831.97;4745112;30;20156;-79
2021/09/18 08:30:10;;;;;;;7.82;5.35;;;;;;;22.16;53.43;101830.09;4743990;30;20036;-79
2021/09/18 08:32:35;;;;;;;10.23;5.43;;;;;;;22.19;53.44;101834.44;4741576;30;20066;-79
2021/09/18 08:35:01;;;;;;;12.20;6.00;;;;;;;22.34;53.39;101825.53;4727086;30;20056;-79
2021/09/18 08:37:27;;;;;;;7.07;4.88;;;;;;;22.38;53.00;101821.97;4745216;30;20028;-80
2021/09/18 08:39:52;;;;;;;7.93;5.97;;;;;;;22.37;53.27;101834.22;4741167;30;20060;-77
2021/09/18 08:42:18;;;;;;;8.52;5.20;;;;;;;22.38;53.38;101830.72;4758133;30;20040;-77
2021/09/18 08:44:43;;;;;;;8.32;5.80;;;;;;;22.33;53.24;101829.03;4744228;30;20031;-78
2021/09/18 08:47:10;;;;;;;7.50;5.30;;;;;;;22.33;53.34;101829.03;4744187;30;22243;-79
2021/09/18 08:49:37;;;;;;;6.80;4.53;;;;;;;22.29;53.45;101828.22;4743933;30;20053;-80
2021/09/18 08:52:06;;;;;;;10.73;5.60;;;;;;;22.23;53.80;101825.66;4729645;30;20431;-78
2021/09/18 08:54:32;;;;;;;9.23;5.88;;;;;;;22.30;53.70;101823.84;4759841;30;20040;-78
2021/09/18 08:56:58;;;;;;;9.18;5.63;;;;;;;22.28;53.32;101828.25;4744374;30;20044;-78
2021/09/18 08:59:23;;;;;;;9.73;5.90;;;;;;;22.29;53.23;101833.44;4760075;30;20063;-77
2021/09/18 09:02:10;;;;;;;9.95;6.95;;;;;;;22.29;53.07;101832.59;4732195;30;20032;-77
2021/09/18 09:04:36;;;;;;;12.00;6.70;;;;;;;22.25;52.96;101833.50;4761893;30;20400;-78
2021/09/18 09:07:02;;;;;;;11.23;7.25;;;;;;;22.30;53.01;101831.72;4729416;30;20036;-77
2021/09/18 09:10:05;;;;;;;12.18;6.50;;;;;;;22.30;53.10;101827.34;4744238;30;20040;-78
2021/09/18 09:12:38;;;;;;;15.38;7.35;;;;;;;22.31;53.18;101831.69;4761289;30;20145;-77
2021/09/18 09:15:18;;;;;;;16.52;7.18;;;;;;;22.25;53.15;101828.28;4744816;30;20038;-77
2021/09/18 09:17:49;;;;;;;13.52;8.18;;;;;;;22.26;52.99;101827.41;4745166;30;20032;-78
2021/09/18 09:23:37;;;;;;;19.65;10.95;;;;;;;22.30;52.63;101835.19;4762153;30;20048;-79
2021/09/18 09:26:03;;;;;;;16.77;12.32;;;;;;;22.28;52.39;101831.72;4749797;30;20034;-81
2021/09/18 09:28:37;;;;;;;16.77;11.65;;;;;;;22.30;52.60;101839.59;4732230;30;20123;-80
2021/09/18 09:31:26;;;;;;;18.77;12.30;;;;;;;22.30;52.54;101839.59;4765470;30;20391;-80
2021/09/18 09:34:29;;;;;;;15.05;11.80;;;;;;;22.29;52.42;101838.69;4761659;30;20062;-79
2021/09/18 09:36:54;;;;;;;18.55;12.45;;;;;;;22.29;52.39;101840.47;4728657;30;20546;-79
2021/09/18 09:39:24;;;;;;;19.35;12.80;;;;;;;22.29;52.33;101843.09;4743346;30;20112;-78
2021/09/18 09:41:53;;;;;;;16.65;12.55;;;;;;;22.27;52.14;101847.47;4728474;30;20057;-78
2021/09/18 09:44:23;;;;;;;17.45;12.65;;;;;;;22.27;52.25;101844.84;4728704;30;20040;-78
2021/09/18 09:47:10;;;;;;;16.40;11.70;;;;;;;22.27;52.17;101844.84;4728760;30;20055;-78
2021/09/18 09:49:50;;;;;;;14.35;11.45;;;;;;;22.27;51.74;101842.22;4728308;30;20036;-78
2021/09/18 09:52:26;;;;;;;11.85;10.15;;;;;;;22.26;51.58;101843.13;4742793;30;20029;-78
2021/09/18 09:55:00;;;;;;;12.18;9.52;;;;;;;22.28;51.55;101857.09;4729295;30;20032;-78
2021/09/18 09:57:26;;;;;;;12.20;7.85;;;;;;;22.29;51.08;101850.94;4728810;30;20032;-78
2021/09/18 10:00:05;;;;;;;13.88;8.50;;;;;;;22.25;51.33;101851.88;4729495;30;20033;-78
2021/09/18 10:02:31;;;;;;;11.30;7.18;;;;;;;22.23;50.76;101851.88;4719510;30;20044;-78
2021/09/18 10:04:57;;;;;;;10.82;6.97;;;;;;;22.22;50.84;101847.53;4703397;30;20033;-78
2021/09/18 10:07:23;;;;;;;8.20;6.50;;;;;;;22.19;50.80;101845.81;4731507;30;20051;-77
2021/09/18 10:09:48;;;;;;;10.25;6.47;;;;;;;22.24;50.69;101848.38;4731384;30;20044;-77
2021/09/18 10:12:15;;;;;;;10.30;6.20;;;;;;;22.28;50.27;101849.22;4731742;30;20104;-77
2021/09/18 10:14:48;;;;;;;7.85;5.70;;;;;;;22.24;50.35;101851.00;4716932;30;20148;-77
2021/09/18 10:17:15;;;;;;;8.15;5.82;;;;;;;22.24;50.05;101855.41;4717079;30;20029;-78
2021/09/18 10:19:55;;;;;;;6.75;4.95;;;;;;;22.25;49.86;101855.34;4747124;30;20024;-77
2021/09/18 10:25:19;;;;;;;6.40;4.40;;;;;;;22.24;49.46;101855.41;4746417;30;20068;-78
2021/09/18 10:28:21;;;;;;;6.88;4.50;;;;;;;22.24;49.43;101852.78;4747946;30;20033;-78
2021/09/18 10:30:53;;;;;;;6.35;4.18;;;;;;;22.24;49.53;101856.25;4749725;30;20033;-79
2021/09/18 10:33:27;;;;;;;4.65;4.15;;;;;;;22.21;49.44;101851.03;4735836;30;20036;-79
2021/09/18 10:35:56;;;;;;;5.65;4.00;;;;;;;22.21;49.24;101853.66;4748110;30;20060;-78
2021/09/18 10:38:26;;;;;;;5.93;4.25;;;;;;;22.22;49.42;101854.50;4753481;30;20115;-77
2021/09/18 10:41:04;;;;;;;5.47;3.78;;;;;;;22.22;48.97;101849.28;4750657;30;20024;-78
2021/09/18 10:43:42;;;;;;;5.30;3.65;;;;;;;22.21;48.73;101840.53;4755412;30;20047;-79
2021/09/18 10:46:11;;;;;;;3.92;3.30;;;;;;;22.24;48.42;101842.28;4752745;30;20036;-77
2021/09/18 10:48:44;;;;;;;4.60;3.38;;;;;;;22.22;48.31;101844.03;4750031;30;20051;-78
2021/09/18 10:51:33;;;;;;;3.90;3.10;;;;;;;22.22;48.17;101842.28;4749084;30;20170;-77
2021/09/18 10:54:08;;;;;;;4.30;3.15;;;;;;;22.19;48.15;101839.69;4764638;30;20036;-77
2021/09/18 10:56:55;;;;;;;3.65;2.90;;;;;;;22.17;48.06;101839.69;4748881;30;20028;-77
2021/09/18 10:59:41;;;;;;;5.25;3.28;;;;;;;22.18;48.18;101835.31;4767460;30;20036;-80
2021/09/18 11:02:34;;;;;;;4.47;2.83;;;;;;;22.17;48.10;101826.59;4751110;30;20547;-79
2021/09/18 11:05:03;;;;;;;3.90;2.88;;;;;;;22.17;48.12;101823.13;4771794;30;20102;-78
2021/09/18 11:07:51;;;;;;;4.30;3.22;;;;;;;22.17;48.24;101823.97;4737262;30;20044;-78
2021/09/18 11:10:19;;;;;;;4.15;2.70;;;;;;;22.19;48.29;101823.97;4766615;30;20035;-79
2021/09/18 11:13:07;;;;;;;4.22;2.97;;;;;;;22.17;48.30;101826.59;4751498;30;20024;-79
2021/09/18 11:15:55;;;;;;;4.75;2.80;;;;;;;22.19;48.05;101826.59;4750634;30;20032;-78
2021/09/18 11:18:40;;;;;;;8.48;2.70;;;;;;;22.21;48.30;101821.31;4750984;30;20120;-79
2021/09/18 11:21:30;;;;;;;3.38;2.50;;;;;;;22.21;48.04;101829.16;4766779;30;20028;-78
2021/09/18 11:24:02;;;;;;;3.67;2.65;;;;;;;22.21;48.24;101827.44;4737331;30;20032;-79
2021/09/18 11:26:31;;;;;;;3.00;2.53;;;;;;;22.22;48.17;101833.53;4767888;30;20083;-79
2021/09/18 11:29:10;;;;;;;3.63;2.60;;;;;;;22.22;48.09;101831.81;4749501;30;20024;-78
2021/09/18 11:32:11;;;;;;;3.63;2.80;;;;;;;22.18;47.48;101824.84;4747710;30;20455;-79
2021/09/18 11:34:51;;;;;;;3.47;2.15;;;;;;;22.25;48.32;101817.78;4751509;30;20412;-79
2021/09/18 11:37:29;;;;;;;4.00;2.28;;;;;;;22.26;48.22;101815.16;4767359;30;20047;-79
2021/09/18 11:40:13;;;;;;;3.78;2.50;;;;;;;22.24;48.56;101824.78;4753172;30;20019;-78
2021/09/18 11:42:41;;;;;;;3.55;2.50;;;;;;;22.22;48.24;101818.69;4752165;30;20488;-78
2021/09/18 11:45:26;;;;;;;3.78;2.20;;;;;;;22.25;48.58;101820.41;4752299;30;20032;-78
2021/09/18 11:47:58;;;;;;;4.28;2.25;;;;;;;22.25;48.04;101816.03;4736259;30;20044;-77
2021/09/18 11:50:29;;;;;;;16.00;5.65;;;;;;;22.26;48.31;101809.91;4733522;30;20048;-77
2021/09/18 11:53:07;;;;;;;12.98;5.25;;;;;;;22.11;50.87;101812.72;4766088;30;20067;-78
2021/09/18 11:55:41;;;;;;;15.73;5.00;;;;;;;21.80;54.42;101807.84;4754612;30;20040;-77
2021/09/18 11:58:32;;;;;;;16.30;5.20;;;;;;;21.55;54.44;101809.88;4735915;30;20036;-77
2021/09/18 12:01:01;;;;;;;13.75;5.07;;;;;;;21.47;55.43;101812.59;4764183;30;20024;-77
2021/09/18 12:03:48;;;;;;;12.65;4.85;;;;;;;21.34;58.05;101803.94;4760612;30;20040;-77
2021/09/18 12:06:15;;;;;;;12.93;4.63;;;;;;;21.34;55.36;101800.47;4763468;30;20034;-77
2021/09/18 12:08:43;;;;;;;18.08;5.35;;;;;;;21.33;55.74;101799.56;4763270;30;20108;-78
2021/09/18 12:11:28;;;;;;;12.70;4.80;;;;;;;21.27;57.86;101801.38;4764181;30;20036;-78
2021/09/18 12:13:55;;;;;;;7.72;4.15;;;;;;;21.28;56.81;101800.53;4762343;30;20067;-77
2021/09/18 12:16:24;;;;;;;10.70;4.53;;;;;;;21.29;55.09;101794.38;4729190;30;20032;-78
2021/09/18 12:18:53;;;;;;;12.82;5.05;;;;;;;21.31;56.41;101795.25;4746167;30;20070;-78
2021/09/18 12:21:24;;;;;;;8.05;3.97;;;;;;;21.30;55.85;101797.00;4715754;30;20036;-78
2021/09/18 12:23:57;;;;;;;8.07;3.78;;;;;;;21.34;55.22;101797.84;4747095;30;20044;-78
2021/09/18 12:26:27;;;;;;;10.27;4.20;;;;;;;21.38;55.11;101799.53;4761499;30;20039;-78
2021/09/18 12:29:10;;;;;;;10.85;3.92;;;;;;;21.42;55.19;101795.16;4760584;30;20040;-78
2021/09/18 12:31:38;;;;;;;12.02;3.70;;;;;;;21.44;55.23;101801.25;4744319;30;20035;-78
2021/09/18 12:34:33;;;;;;;6.45;3.25;;;;;;;21.52;55.20;101799.44;4759655;30;20169;-77
2021/09/18 12:37:07;;;;;;;8.88;3.35;;;;;;;21.59;55.45;101797.63;4734922;30;20082;-77
2021/09/18 12:39:34;;;;;;;5.63;3.20;;;;;;;21.56;55.15;101799.38;4760743;30;20515;-75
2021/09/18 12:42:05;;;;;;;6.47;3.22;;;;;;;21.62;54.54;101798.44;4745689;30;20040;-78
2021/09/18 12:44:34;;;;;;;7.75;2.80;;;;;;;21.63;54.84;101794.06;4761933;30;20188;-77
2021/09/18 12:47:03;;;;;;;6.40;3.10;;;;;;;21.62;54.49;101797.56;4758522;30;20349;-78
2021/09/18 12:49:33;;;;;;;6.38;2.85;;;;;;;21.66;54.64;101794.88;4728056;30;20458;-78
2021/09/18 12:52:04;;;;;;;6.05;3.08;;;;;;;21.67;53.97;101795.78;4758563;30;20048;-77
2021/09/18 12:54:41;;;;;;;4.35;2.45;;;;;;;21.66;54.16;101797.50;4750702;30;20032;-78
2021/09/18 12:57:07;;;;;;;4.57;2.78;;;;;;;21.67;54.26;101796.63;4749788;30;20028;-77
2021/09/18 12:59:46;;;;;;;5.97;3.05;;;;;;;21.67;54.08;101793.16;4743697;30;20458;-78
2021/09/18 13:02:18;;;;;;;3.78;2.42;;;;;;;21.73;53.42;101785.19;4757232;30;20551;-78
2021/09/18 13:04:44;;;;;;;4.70;2.50;;;;;;;21.74;53.99;101782.56;4743273;30;20040;-77
2021/09/18 13:07:11;;;;;;;4.13;2.40;;;;;;;21.73;54.54;101780.84;4744553;30;20036;-77
2021/09/18 13:09:41;;;;;;;5.40;2.42;;;;;;;21.74;54.08;101785.19;4745784;30;20066;-77
2021/09/18 13:12:28;;;;;;;3.30;2.20;;;;;;;21.74;54.27;101789.56;4760680;30;20062;-79
2021/09/18 13:14:56;;;;;;;4.47;2.40;;;;;;;21.76;54.25;101788.66;4758589;30;20028;-78
2021/09/18 13:17:24;;;;;;;3.80;2.10;;;;;;;21.78;53.82;101788.66;4741868;30;20024;-79
2021/09/18 13:19:53;;;;;;;4.13;2.10;;;;;;;21.80;53.52;101784.28;4728865;30;20437;-77
2021/09/18 13:22:21;;;;;;;2.97;2.30;;;;;;;21.81;53.94;101783.38;4745967;30;20028;-77
2021/09/18 13:24:49;;;;;;;3.70;2.60;;;;;;;21.81;54.02;101786.00;4760936;30;20032;-77
2021/09/18 13:27:16;;;;;;;3.08;2.40;;;;;;;21.84;53.98;101782.47;4762569;30;20036;-77
2021/09/18 13:29:44;;;;;;;4.38;2.30;;;;;;;21.86;54.01;101772.81;4764040;30;20036;-77
2021/09/18 13:32:09;;;;;;;4.88;2.20;;;;;;;21.88;54.06;101774.53;4748912;30;20024;-78
2021/09/18 13:34:35;;;;;;;3.08;2.08;;;;;;;21.91;54.17;101771.03;4733250;30;20059;-78
2021/09/18 13:37:00;;;;;;;4.03;2.40;;;;;;;21.90;54.50;101764.91;4734333;30;20381;-77
2021/09/18 13:39:27;;;;;;;4.63;2.33;;;;;;;21.89;54.32;101764.94;4734098;30;20039;-77
2021/09/18 13:41:58;;;;;;;3.90;2.10;;;;;;;21.89;54.55;101765.81;4717674;30;20036;-78
2021/09/18 13:44:24;;;;;;;2.70;1.92;;;;;;;21.94;53.97;101760.50;4729515;30;20032;-77
2021/09/18 13:46:50;;;;;;;3.92;2.28;;;;;;;21.93;54.37;101758.78;4733105;30;21016;-78
2021/09/18 13:49:15;;;;;;;3.50;2.28;;;;;;;21.96;54.40;101758.72;4748436;30;20112;-77
2021/09/18 13:51:41;;;;;;;3.40;2.20;;;;;;;21.95;54.60;101755.25;4717062;30;20035;-77
2021/09/18 13:54:07;;;;;;;3.00;2.05;;;;;;;21.95;54.49;101757.88;4745765;30;20047;-77
2021/09/18 13:56:32;;;;;;;2.28;1.88;;;;;;;21.96;54.34;101758.72;4732399;30;20052;-76
2021/09/18 13:58:58;;;;;;;3.60;2.40;;;;;;;21.94;54.27;101755.25;4731749;30;20044;-78
2021/09/18 14:01:23;;;;;;;2.53;1.80;;;;;;;21.95;54.36;101751.75;4762559;30;20028;-77
2021/09/18 14:03:49;;;;;;;4.20;2.42;;;;;;;21.93;54.41;101743.91;4746486;30;20174;-77
2021/09/18 14:06:14;;;;;;;3.75;2.00;;;;;;;21.97;54.49;101748.22;4718230;30;20036;-77
2021/09/18 14:08:41;;;;;;;4.43;2.08;;;;;;;21.98;54.78;101742.09;4748206;30;20099;-77
2021/09/18 14:11:08;;;;;;;3.35;2.33;;;;;;;21.98;54.64;101743.84;4746706;30;20028;-77
2021/09/18 14:13:34;;;;;;;2.83;2.00;;;;;;;22.02;55.34;101742.06;4764485;30;20087;-78
2021/09/18 14:16:00;;;;;;;3.80;2.10;;;;;;;22.04;54.46;101742.91;4735966;30;20032;-78
2021/09/18 14:18:25;;;;;;;2.75;2.10;;;;;;;22.02;54.32;101742.06;4751545;30;20061;-77
2021/09/18 14:20:53;;;;;;;2.25;2.03;;;;;;;22.05;54.29;101737.63;4733495;30;20024;-77
2021/09/18 14:23:19;;;;;;;3.58;2.10;;;;;;;22.05;53.42;101734.16;4749112;30;20101;-77
2021/09/18 14:25:45;;;;;;;3.13;2.03;;;;;;;22.08;54.55;101741.94;4736928;30;20044;-78
2021/09/18 14:28:10;;;;;;;2.25;1.77;;;;;;;22.08;54.36;101734.09;4738190;30;20039;-77
2021/09/18 14:30:36;;;;;;;3.55;2.15;;;;;;;22.06;54.46;101731.50;4750875;30;20089;-77
2021/09/18 14:33:02;;;;;;;2.58;2.10;;;;;;;22.08;54.50;101734.09;4765936;30;20107;-79
2021/09/18 14:35:27;;;;;;;2.45;2.17;;;;;;;22.08;54.68;101726.22;4740636;30;20056;-77
2021/09/18 14:37:55;;;;;;;2.72;2.10;;;;;;;22.10;54.87;101721.81;4748561;30;20126;-77
2021/09/18 14:40:23;;;;;;;2.80;1.88;;;;;;;22.11;54.66;101713.09;4734344;30;20081;-77
2021/09/18 14:42:48;;;;;;;2.30;2.10;;;;;;;22.14;54.71;101713.03;4735111;30;20044;-77
2021/09/18 14:45:14;;;;;;;2.85;2.30;;;;;;;22.12;54.20;101718.31;4718850;30;20093;-78
2021/09/18 14:47:39;;;;;;;2.47;2.20;;;;;;;22.07;53.97;101709.63;4748367;30;20034;-78
2021/09/18 14:50:08;;;;;;;3.00;2.20;;;;;;;22.05;54.52;101724.53;4734748;30;20098;-78
2021/09/18 14:52:35;;;;;;;2.35;2.00;;;;;;;22.04;54.27;101716.69;4746138;30;20036;-78
2021/09/18 14:55:02;;;;;;;2.33;2.10;;;;;;;22.04;54.12;101724.56;4761735;30;20032;-77
2021/09/18 14:57:27;;;;;;;3.97;2.42;;;;;;;22.00;54.52;101726.34;4744310;30;20119;-76
2021/09/18 14:59:53;;;;;;;2.70;2.28;;;;;;;22.03;54.57;101733.28;4734477;30;20499;-77
2021/09/18 15:02:19;;;;;;;3.38;2.50;;;;;;;21.99;53.79;101719.34;4733820;30;20119;-77